Time;durP1;ratioP1;P1;durP2;ratioP2;P2;SDS_P1;SDS_P2;PMS_P1;PMS_P2;Temp;Humidity;BMP_temperature;BMP_pressure;BME280_temperature;BME280_humidity;BME280_pressure;Samples;Min_cycle;Max_cycle;Signal;HPM_P1;HPM_P2
2021/06/22 00:01:05;;;;;;;11.90;3.80;;;24.90;70.90;;;;;;5096130;28;20555;-75
2021/06/22 00:03:31;;;;;;;11.93;3.33;;;24.90;71.10;;;;;;5114974;28;20031;-75
2021/06/22 00:05:57;;;;;;;4.93;2.53;;;24.90;71.20;;;;;;5113985;28;20631;-74
2021/06/22 00:08:23;;;;;;;7.13;2.40;;;24.80;70.80;;;;;;5114352;28;20023;-74
2021/06/22 00:10:49;;;;;;;13.05;2.45;;;24.80;70.60;;;;;;5113641;28;20023;-75
2021/06/22 00:13:15;;;;;;;7.63;2.25;;;24.90;70.30;;;;;;5114317;28;20101;-75
2021/06/22 00:15:41;;;;;;;9.93;2.75;;;24.80;70.20;;;;;;5113971;28;20107;-75
2021/06/22 00:18:07;;;;;;;6.43;2.22;;;24.80;70.20;;;;;;5114443;28;20109;-75
2021/06/22 00:20:33;;;;;;;5.82;2.20;;;24.80;70.30;;;;;;5113838;28;20026;-75
2021/06/22 00:22:59;;;;;;;9.90;2.67;;;24.70;70.50;;;;;;5095780;28;20039;-76
2021/06/22 00:25:25;;;;;;;7.13;2.47;;;24.70;70.80;;;;;;5114172;28;20031;-75
2021/06/22 00:27:51;;;;;;;4.22;2.22;;;24.60;71.10;;;;;;5095718;28;20503;-75
2021/06/22 00:30:18;;;;;;;14.02;2.67;;;24.60;71.10;;;;;;5095422;28;20524;-75
2021/06/22 00:32:44;;;;;;;11.38;2.85;;;24.50;71.20;;;;;;5095519;28;20028;-75
2021/06/22 00:35:11;;;;;;;10.13;2.88;;;24.50;71.50;;;;;;5095914;28;20024;-75
2021/06/22 00:37:37;;;;;;;13.98;2.70;;;24.40;71.50;;;;;;5114033;28;20107;-75
2021/06/22 00:40:04;;;;;;;11.30;2.35;;;24.40;71.40;;;;;;5095015;28;20031;-75
2021/06/22 00:42:29;;;;;;;7.43;1.98;;;24.40;71.50;;;;;;5113816;28;20448;-75
2021/06/22 00:44:58;;;;;;;11.35;3.03;;;24.40;71.60;;;;;;5095792;28;20059;-75
2021/06/22 00:47:24;;;;;;;4.90;2.85;;;24.30;71.50;;;;;;5114122;28;20020;-75
2021/06/22 00:49:51;;;;;;;6.38;2.10;;;24.30;71.90;;;;;;5113708;28;20030;-75
2021/06/22 00:52:25;;;;;;;10.68;2.58;;;24.20;71.80;;;;;;5113791;28;20346;-76
2021/06/22 00:54:52;;;;;;;4.82;1.88;;;24.20;71.90;;;;;;5113718;28;20028;-75
2021/06/22 00:57:18;;;;;;;5.97;2.55;;;24.20;72.10;;;;;;5113690;28;20047;-75
2021/06/22 00:59:44;;;;;;;8.80;2.97;;;24.10;71.90;;;;;;5113628;28;20020;-75
2021/06/22 01:02:10;;;;;;;9.25;2.63;;;24.00;72.20;;;;;;5113388;28;20087;-75
2021/06/22 01:04:36;;;;;;;7.80;2.20;;;23.90;72.20;;;;;;5113479;28;20072;-75
2021/06/22 01:07:03;;;;;;;11.30;2.67;;;23.90;72.40;;;;;;5093157;28;20031;-76
2021/06/22 01:09:29;;;;;;;18.65;3.58;;;23.80;72.70;;;;;;5113026;28;20035;-75
2021/06/22 01:11:59;;;;;;;6.93;2.28;;;23.90;72.50;;;;;;5113282;28;20043;-75
2021/06/22 01:14:26;;;;;;;7.93;2.20;;;23.90;72.50;;;;;;5113042;28;20390;-75
2021/06/22 01:16:52;;;;;;;9.80;2.20;;;23.80;72.50;;;;;;5113585;28;20012;-75
2021/06/22 01:19:18;;;;;;;5.80;2.17;;;23.70;72.70;;;;;;5094646;28;20029;-75
2021/06/22 01:21:44;;;;;;;7.25;2.70;;;23.70;72.60;;;;;;5095523;28;20013;-75
2021/06/22 01:24:12;;;;;;;9.00;2.40;;;23.70;72.50;;;;;;5093015;28;20028;-75
2021/06/22 01:26:44;;;;;;;9.70;2.15;;;23.60;72.30;;;;;;5093046;28;20028;-75
2021/06/22 01:29:10;;;;;;;7.78;2.38;;;23.60;71.90;;;;;;5092510;28;20036;-75
2021/06/22 01:31:37;;;;;;;5.38;2.90;;;23.50;72.00;;;;;;5092090;28;20418;-75
2021/06/22 01:34:03;;;;;;;10.90;2.65;;;23.50;72.30;;;;;;5111139;28;20045;-75
2021/06/22 01:36:31;;;;;;;5.07;2.35;;;23.50;72.40;;;;;;5112956;28;20505;-75
2021/06/22 01:38:57;;;;;;;8.82;2.13;;;23.50;72.30;;;;;;5113145;28;20094;-75
2021/06/22 01:41:23;;;;;;;13.55;2.45;;;23.60;72.30;;;;;;5113202;28;20034;-75
2021/06/22 01:43:49;;;;;;;12.35;2.08;;;23.50;71.90;;;;;;5113156;28;20024;-75
2021/06/22 01:46:15;;;;;;;8.13;2.83;;;23.50;72.00;;;;;;5113455;28;20027;-75
2021/06/22 01:48:41;;;;;;;5.22;1.83;;;23.60;73.20;;;;;;5113196;28;20080;-75
2021/06/22 01:51:07;;;;;;;4.93;2.58;;;23.60;72.70;;;;;;5094673;28;20597;-75
2021/06/22 01:53:33;;;;;;;19.85;2.22;;;23.50;71.90;;;;;;5113213;28;20020;-75
2021/06/22 01:55:59;;;;;;;8.07;2.20;;;23.50;71.80;;;;;;5094802;28;20121;-75
2021/06/22 01:58:25;;;;;;;3.97;2.35;;;23.50;71.60;;;;;;5095040;28;20019;-75
2021/06/22 02:00:54;;;;;;;8.25;2.72;;;23.50;71.50;;;;;;5094468;28;20519;-75
2021/06/22 02:03:24;;;;;;;8.20;1.75;;;23.50;71.90;;;;;;5113258;28;20027;-75
2021/06/22 02:05:50;;;;;;;9.23;2.33;;;23.50;71.80;;;;;;5113067;28;20058;-75
2021/06/22 02:08:17;;;;;;;9.63;2.38;;;23.50;71.90;;;;;;5094781;28;20028;-75
2021/06/22 02:10:44;;;;;;;7.35;2.35;;;23.50;71.70;;;;;;5112271;28;20062;-75
2021/06/22 02:13:10;;;;;;;7.97;2.40;;;23.50;71.70;;;;;;5112887;28;20038;-75
2021/06/22 02:15:38;;;;;;;7.85;2.63;;;23.50;72.10;;;;;;5112944;28;20024;-75
2021/06/22 02:18:04;;;;;;;11.90;2.97;;;23.50;72.10;;;;;;5094328;28;20024;-75
2021/06/22 02:20:30;;;;;;;10.85;2.28;;;23.50;72.00;;;;;;5094322;28;20031;-76
2021/06/22 02:22:56;;;;;;;12.32;2.85;;;23.40;72.20;;;;;;5113094;28;20032;-75
2021/06/22 02:25:22;;;;;;;5.38;3.13;;;23.30;72.40;;;;;;5112855;28;20019;-75
2021/06/22 02:27:48;;;;;;;12.18;2.65;;;23.30;72.60;;;;;;5093225;28;20023;-75
2021/06/22 02:30:18;;;;;;;6.32;2.30;;;23.40;72.80;;;;;;5112306;28;20500;-75
2021/06/22 02:32:44;;;;;;;9.40;2.88;;;23.30;73.10;;;;;;5097382;28;20028;-75
2021/06/22 02:35:12;;;;;;;7.30;2.83;;;23.30;73.40;;;;;;5116525;28;20019;-75
2021/06/22 02:37:39;;;;;;;7.53;2.78;;;23.30;73.70;;;;;;5116531;28;20473;-75
2021/06/22 02:40:08;;;;;;;7.95;3.03;;;23.30;73.90;;;;;;5116160;28;20061;-75
2021/06/22 02:42:34;;;;;;;10.10;2.63;;;23.30;74.00;;;;;;5116574;28;20110;-75
2021/06/22 02:45:00;;;;;;;8.23;3.00;;;23.30;73.70;;;;;;5116141;28;20098;-75
2021/06/22 02:47:26;;;;;;;8.93;2.47;;;23.30;73.90;;;;;;5116382;28;20036;-75
2021/06/22 02:49:52;;;;;;;11.32;3.17;;;23.30;74.20;;;;;;5116058;28;20032;-75
2021/06/22 02:52:18;;;;;;;7.93;3.20;;;23.30;74.70;;;;;;5116029;28;20031;-76
2021/06/22 02:54:44;;;;;;;5.80;2.65;;;23.20;75.00;;;;;;5116364;28;20034;-75
2021/06/22 02:57:10;;;;;;;9.68;3.05;;;23.20;75.40;;;;;;5116194;28;20020;-75
2021/06/22 02:59:37;;;;;;;9.15;3.38;;;23.20;75.70;;;;;;5115798;28;20081;-75
2021/06/22 03:02:04;;;;;;;6.50;3.25;;;23.20;75.70;;;;;;5115513;28;20538;-75
2021/06/22 03:04:31;;;;;;;14.93;4.10;;;23.20;76.30;;;;;;5115783;28;20032;-75
2021/06/22 03:06:57;;;;;;;7.20;2.40;;;23.20;76.10;;;;;;5114681;28;20416;-78
2021/06/22 03:09:23;;;;;;;14.48;2.78;;;23.20;76.20;;;;;;5116123;28;20028;-78
2021/06/22 03:11:50;;;;;;;10.57;2.95;;;23.20;76.70;;;;;;5115880;28;20019;-75
2021/06/22 03:14:17;;;;;;;9.82;2.55;;;23.30;76.90;;;;;;5115498;28;20031;-75
2021/06/22 03:16:44;;;;;;;16.65;3.13;;;23.10;77.20;;;;;;5116101;28;20023;-75
2021/06/22 03:19:10;;;;;;;7.45;3.05;;;23.20;77.30;;;;;;5115618;28;20457;-75
2021/06/22 03:21:36;;;;;;;8.52;2.85;;;23.30;77.70;;;;;;5115847;28;20038;-75
2021/06/22 03:24:03;;;;;;;7.97;3.08;;;23.20;78.60;;;;;;5115526;28;20023;-75
2021/06/22 03:26:28;;;;;;;10.40;2.65;;;23.20;77.90;;;;;;5097590;28;20385;-75
2021/06/22 03:28:54;;;;;;;12.98;3.28;;;23.20;78.00;;;;;;5097073;28;20061;-75
2021/06/22 03:31:20;;;;;;;10.77;3.45;;;23.00;78.90;;;;;;5114843;28;20080;-75
2021/06/22 03:33:46;;;;;;;11.63;3.10;;;23.00;79.30;;;;;;5115832;28;20058;-75
2021/06/22 03:36:11;;;;;;;11.40;3.55;;;23.00;79.60;;;;;;5115506;28;20019;-75
2021/06/22 03:38:37;;;;;;;10.30;2.85;;;23.10;79.60;;;;;;5096814;28;20020;-75
2021/06/22 03:41:03;;;;;;;7.40;3.33;;;23.10;79.90;;;;;;5109087;28;20016;-75
2021/06/22 03:43:29;;;;;;;11.82;4.38;;;23.10;80.00;;;;;;5076709;28;20028;-75
2021/06/22 03:45:55;;;;;;;9.90;3.08;;;23.10;80.20;;;;;;5107259;28;20106;-76
2021/06/22 03:48:21;;;;;;;13.85;3.50;;;23.10;80.60;;;;;;5115376;28;20031;-75
2021/06/22 03:50:46;;;;;;;11.90;3.50;;;23.00;81.00;;;;;;5115022;28;20065;-75
2021/06/22 03:53:12;;;;;;;11.55;3.28;;;23.00;81.70;;;;;;5115081;28;20102;-75
2021/06/22 03:55:38;;;;;;;17.55;3.53;;;22.90;82.10;;;;;;5115027;28;20020;-75
2021/06/22 03:58:05;;;;;;;14.30;4.22;;;22.90;82.60;;;;;;5102888;28;20020;-75
2021/06/22 04:00:32;;;;;;;13.95;3.42;;;22.90;83.20;;;;;;5094611;28;20494;-75
2021/06/22 04:02:59;;;;;;;10.57;3.35;;;22.90;83.80;;;;;;5094664;28;20424;-75
2021/06/22 04:05:29;;;;;;;8.00;2.90;;;22.80;84.40;;;;;;5094351;28;20031;-75
2021/06/22 04:07:56;;;;;;;10.30;3.45;;;22.80;84.90;;;;;;5094391;28;20066;-75
2021/06/22 04:10:23;;;;;;;9.75;3.30;;;22.80;85.20;;;;;;5094150;28;20127;-75
2021/06/22 04:12:49;;;;;;;13.32;4.30;;;22.90;85.90;;;;;;5094661;28;20076;-75
2021/06/22 04:15:15;;;;;;;8.45;3.25;;;22.90;86.20;;;;;;5114631;28;20020;-75
2021/06/22 04:17:40;;;;;;;13.38;3.60;;;22.90;86.50;;;;;;5096580;28;20020;-75
2021/06/22 04:20:07;;;;;;;10.90;3.85;;;23.00;86.50;;;;;;5114687;28;20030;-75
2021/06/22 04:22:33;;;;;;;11.57;3.58;;;23.00;86.70;;;;;;5114523;28;20099;-75
2021/06/22 04:24:58;;;;;;;14.82;4.05;;;23.10;86.50;;;;;;5096150;28;20164;-75
2021/06/22 04:27:25;;;;;;;15.23;3.92;;;23.10;87.00;;;;;;5114404;28;20027;-75
2021/06/22 04:29:51;;;;;;;7.40;3.65;;;23.20;87.10;;;;;;5114265;28;20453;-75
2021/06/22 04:32:17;;;;;;;15.90;3.13;;;23.20;87.40;;;;;;5113311;28;20488;-75
2021/06/22 04:34:43;;;;;;;12.85;4.00;;;23.20;87.60;;;;;;5096209;28;20023;-75
2021/06/22 04:37:09;;;;;;;8.60;3.45;;;23.20;88.60;;;;;;5113825;28;20059;-75
2021/06/22 04:39:35;;;;;;;11.55;3.85;;;23.10;88.70;;;;;;5114133;28;20505;-75
2021/06/22 04:42:01;;;;;;;7.60;3.25;;;23.20;89.00;;;;;;5113712;28;20035;-75
2021/06/22 04:44:26;;;;;;;14.43;3.85;;;23.10;89.50;;;;;;5114141;28;20485;-75
2021/06/22 04:46:52;;;;;;;9.05;3.47;;;23.10;89.80;;;;;;5113990;28;20481;-74
2021/06/22 04:49:18;;;;;;;12.25;3.42;;;23.20;90.20;;;;;;5113831;28;20460;-75
2021/06/22 04:51:43;;;;;;;8.50;4.15;;;23.10;90.70;;;;;;5095489;28;20019;-75
2021/06/22 04:54:10;;;;;;;10.93;4.40;;;23.10;90.70;;;;;;5111445;28;20110;-75
2021/06/22 04:56:38;;;;;;;11.50;4.07;;;23.10;90.70;;;;;;5110000;28;20028;-75
2021/06/22 04:59:04;;;;;;;11.73;3.67;;;23.10;90.80;;;;;;5075101;28;20048;-78
2021/06/22 05:01:30;;;;;;;10.07;3.72;;;23.10;90.80;;;;;;5102293;28;20031;-75
2021/06/22 05:03:55;;;;;;;12.05;5.25;;;23.00;91.00;;;;;;5113687;28;20035;-75
2021/06/22 05:06:21;;;;;;;13.90;4.25;;;23.10;91.10;;;;;;5107583;28;20024;-75
2021/06/22 05:08:47;;;;;;;11.07;3.75;;;23.10;91.10;;;;;;5113449;28;20080;-75
2021/06/22 05:11:13;;;;;;;10.88;4.15;;;23.10;91.40;;;;;;5113281;28;20035;-75
2021/06/22 05:13:41;;;;;;;10.55;3.78;;;23.30;91.10;;;;;;5113744;28;20019;-75
2021/06/22 05:16:07;;;;;;;11.20;3.97;;;23.30;90.80;;;;;;5113781;28;20076;-75
2021/06/22 05:18:32;;;;;;;7.97;3.42;;;23.40;90.60;;;;;;5095551;28;20419;-75
2021/06/22 05:20:58;;;;;;;17.42;4.78;;;23.40;90.70;;;;;;5113369;28;20613;-78
2021/06/22 05:23:24;;;;;;;15.90;3.50;;;23.50;90.50;;;;;;5094064;28;20553;-75
2021/06/22 05:25:50;;;;;;;9.15;3.58;;;23.60;90.40;;;;;;5112680;28;20590;-75
2021/06/22 05:28:16;;;;;;;16.70;4.32;;;23.60;90.50;;;;;;5112831;28;20043;-75
2021/06/22 05:30:42;;;;;;;15.13;4.18;;;23.70;90.80;;;;;;5092942;28;20032;-75
2021/06/22 05:33:07;;;;;;;17.27;4.38;;;23.70;90.70;;;;;;5112711;28;20576;-75
2021/06/22 05:35:34;;;;;;;13.98;3.83;;;23.80;90.90;;;;;;5112627;28;20068;-75
2021/06/22 05:37:59;;;;;;;8.93;3.40;;;23.80;91.10;;;;;;5094421;28;20389;-75
2021/06/22 05:40:25;;;;;;;17.20;4.13;;;23.90;91.20;;;;;;5112871;28;20024;-77
2021/06/22 05:42:52;;;;;;;11.35;3.20;;;24.00;91.10;;;;;;5113334;28;20127;-75
2021/06/22 05:45:17;;;;;;;11.38;4.30;;;24.00;90.70;;;;;;5113345;28;20039;-75
2021/06/22 05:47:43;;;;;;;10.73;3.88;;;24.00;90.80;;;;;;5113140;28;20385;-75
2021/06/22 05:50:10;;;;;;;12.60;4.43;;;24.00;90.70;;;;;;5112727;28;20054;-77
2021/06/22 05:52:36;;;;;;;11.35;3.80;;;24.10;91.10;;;;;;5112834;28;20385;-75
2021/06/22 05:55:03;;;;;;;13.20;4.07;;;24.10;90.80;;;;;;5112917;28;20666;-76
2021/06/22 05:57:29;;;;;;;21.15;4.47;;;24.20;90.90;;;;;;5113233;28;20024;-75
2021/06/22 05:59:55;;;;;;;12.55;4.63;;;24.30;90.50;;;;;;5112360;28;20030;-76
2021/06/22 06:02:21;;;;;;;19.63;4.13;;;24.40;90.30;;;;;;5094641;28;20031;-75
2021/06/22 06:04:46;;;;;;;13.95;3.60;;;24.40;90.20;;;;;;5113758;28;20015;-75
2021/06/22 06:07:12;;;;;;;8.02;3.28;;;24.40;90.20;;;;;;5103163;28;20429;-75
2021/06/22 06:09:38;;;;;;;8.48;3.80;;;24.40;90.00;;;;;;5096407;28;20028;-76
2021/06/22 06:12:04;;;;;;;16.33;3.42;;;24.50;89.60;;;;;;5116993;28;20487;-75
2021/06/22 06:14:30;;;;;;;19.13;3.83;;;24.60;90.10;;;;;;5117113;28;20031;-75
2021/06/22 06:16:56;;;;;;;10.85;3.72;;;24.60;89.70;;;;;;5116982;28;20027;-75
2021/06/22 06:19:22;;;;;;;14.15;3.25;;;24.70;90.30;;;;;;5116806;28;20024;-75
2021/06/22 06:21:48;;;;;;;16.35;3.63;;;24.80;90.10;;;;;;5116047;28;20389;-75
2021/06/22 06:24:14;;;;;;;7.28;3.75;;;24.80;89.80;;;;;;5115775;28;20035;-75
2021/06/22 06:29:51;;;;;;;11.38;3.92;;;24.90;88.60;;;;;;5098039;28;20062;-75
2021/06/22 06:32:17;;;;;;;14.00;3.83;;;25.00;87.60;;;;;;5096889;28;20557;-75
2021/06/22 06:34:43;;;;;;;17.45;4.45;;;25.10;86.90;;;;;;5101565;28;20106;-75
2021/06/22 06:37:08;;;;;;;11.70;3.33;;;25.10;86.00;;;;;;5097633;28;20381;-75
2021/06/22 06:39:34;;;;;;;13.70;3.67;;;25.20;86.90;;;;;;5115523;28;20066;-75
2021/06/22 06:42:00;;;;;;;15.75;4.40;;;25.20;86.20;;;;;;5097614;28;20119;-76
2021/06/22 06:44:26;;;;;;;19.73;3.40;;;25.20;85.50;;;;;;5115468;28;20038;-76
2021/06/22 06:46:51;;;;;;;24.17;4.55;;;25.30;84.00;;;;;;5115612;28;20440;-75
2021/06/22 06:49:17;;;;;;;14.82;3.80;;;25.30;84.20;;;;;;5114897;28;20019;-75
2021/06/22 06:51:43;;;;;;;16.70;3.50;;;25.40;83.20;;;;;;5115968;28;20382;-75
2021/06/22 06:54:08;;;;;;;10.38;3.25;;;25.40;83.70;;;;;;5115450;28;20153;-75
2021/06/22 06:56:54;;;;;;;9.98;3.67;;;25.50;82.50;;;;;;5115389;28;20031;-75
2021/06/22 06:59:20;;;;;;;7.68;3.00;;;25.50;80.50;;;;;;5088749;28;21367;-75
2021/06/22 07:01:46;;;;;;;13.52;4.75;;;25.50;80.30;;;;;;5096433;28;20027;-75
2021/06/22 07:04:12;;;;;;;15.18;3.67;;;25.60;80.20;;;;;;5099805;28;20034;-75
2021/06/22 07:06:38;;;;;;;14.75;3.10;;;25.60;80.90;;;;;;5079359;28;20020;-75
2021/06/22 07:09:04;;;;;;;9.80;2.70;;;25.70;81.80;;;;;;5111083;28;20397;-75
2021/06/22 07:11:30;;;;;;;10.07;3.20;;;25.80;82.00;;;;;;5111841;28;20028;-75
2021/06/22 07:13:56;;;;;;;9.93;2.97;;;25.80;82.00;;;;;;5112306;28;20386;-75
2021/06/22 07:16:22;;;;;;;19.33;3.75;;;25.80;81.60;;;;;;5106209;28;20018;-75
2021/06/22 07:18:47;;;;;;;11.98;2.95;;;25.80;79.90;;;;;;5092626;28;20024;-75
2021/06/22 07:21:16;;;;;;;9.00;2.58;;;25.90;79.70;;;;;;5104407;28;20020;-75
2021/06/22 07:23:41;;;;;;;6.82;3.00;;;25.90;79.30;;;;;;5110316;28;20126;-75
2021/06/22 07:26:07;;;;;;;9.35;2.88;;;26.00;79.00;;;;;;5100892;28;20118;-75
2021/06/22 07:28:33;;;;;;;8.07;2.42;;;26.00;76.60;;;;;;5100855;28;20587;-75
2021/06/22 07:30:59;;;;;;;10.05;2.72;;;26.00;77.90;;;;;;5108267;28;20461;-75
2021/06/22 07:33:25;;;;;;;10.27;2.67;;;26.00;75.40;;;;;;5095956;28;20020;-75
2021/06/22 07:35:51;;;;;;;8.57;2.72;;;26.00;74.50;;;;;;5110404;28;20055;-75
2021/06/22 07:38:17;;;;;;;10.15;2.95;;;26.10;74.50;;;;;;5110033;28;20453;-75
2021/06/22 07:40:42;;;;;;;5.00;2.00;;;26.10;74.30;;;;;;5106243;28;20024;-75
2021/06/22 07:43:08;;;;;;;8.98;2.38;;;26.20;74.10;;;;;;5106228;28;20397;-75
2021/06/22 07:45:34;;;;;;;5.10;1.67;;;26.20;70.50;;;;;;5103210;28;20099;-75
2021/06/22 07:48:00;;;;;;;4.90;1.90;;;26.20;71.00;;;;;;5100884;28;20581;-75
2021/06/22 07:50:26;;;;;;;11.77;1.90;;;26.30;71.40;;;;;;5106002;28;20059;-75
2021/06/22 07:52:52;;;;;;;7.05;2.35;;;26.40;66.40;;;;;;5104166;28;20047;-74
2021/06/22 07:55:17;;;;;;;10.75;2.60;;;26.40;67.40;;;;;;5098933;28;20023;-75
2021/06/22 07:57:46;;;;;;;10.30;3.13;;;26.50;66.50;;;;;;5110057;28;20018;-74
2021/06/22 08:03:06;;;;;;;7.68;2.72;;;26.50;67.50;;;;;;5096291;28;20039;-75
2021/06/22 08:05:32;;;;;;;8.75;2.05;;;26.60;66.70;;;;;;5098874;28;20357;-74
2021/06/22 08:07:58;;;;;;;5.20;2.20;;;26.60;62.10;;;;;;5087263;28;20023;-75
2021/06/22 08:10:24;;;;;;;6.30;1.58;;;26.60;63.30;;;;;;5083106;28;20055;-74
2021/06/22 08:12:50;;;;;;;13.82;2.72;;;26.70;63.00;;;;;;5081198;28;20032;-75
2021/06/22 08:15:16;;;;;;;9.13;2.03;;;26.80;63.20;;;;;;5094880;28;20088;-75
2021/06/22 08:17:42;;;;;;;9.07;2.10;;;26.80;64.30;;;;;;5102689;28;20549;-75
2021/06/22 08:20:09;;;;;;;9.98;1.98;;;26.90;64.20;;;;;;5087224;28;20139;-75
2021/06/22 08:22:36;;;;;;;6.53;1.77;;;26.90;61.70;;;;;;5099729;28;20104;-75
2021/06/22 08:25:03;;;;;;;8.80;2.22;;;27.00;63.50;;;;;;5099502;28;20418;-75
2021/06/22 08:27:28;;;;;;;7.25;2.28;;;27.00;64.10;;;;;;5107129;28;20016;-74
2021/06/22 08:29:54;;;;;;;7.55;1.80;;;27.00;63.60;;;;;;5092618;28;20126;-75
2021/06/22 08:32:20;;;;;;;9.70;2.58;;;27.10;64.00;;;;;;5100828;28;20377;-75
2021/06/22 08:34:45;;;;;;;11.30;2.88;;;27.10;64.70;;;;;;5105878;28;20077;-74
2021/06/22 08:37:11;;;;;;;6.68;1.70;;;27.10;62.70;;;;;;5091169;28;20023;-74
2021/06/22 08:39:37;;;;;;;7.78;2.38;;;27.10;61.80;;;;;;5098813;28;20022;-74
2021/06/22 08:42:06;;;;;;;14.55;2.72;;;27.20;63.00;;;;;;5106401;28;20030;-75
2021/06/22 08:44:32;;;;;;;5.60;1.65;;;27.10;62.00;;;;;;5098552;28;20103;-74
2021/06/22 08:47:00;;;;;;;6.75;2.10;;;27.20;58.80;;;;;;5108689;28;20068;-75
2021/06/22 08:49:28;;;;;;;7.22;1.85;;;27.20;60.20;;;;;;5102251;28;20035;-75
2021/06/22 08:51:55;;;;;;;7.53;1.75;;;27.40;59.50;;;;;;5093450;28;20016;-75
2021/06/22 08:54:21;;;;;;;6.30;1.70;;;27.40;58.30;;;;;;5105133;28;20072;-75
2021/06/22 08:56:47;;;;;;;8.13;2.15;;;27.40;57.90;;;;;;5099241;28;20087;-75
2021/06/22 08:59:12;;;;;;;6.57;2.30;;;27.40;57.80;;;;;;5111275;28;20024;-75
2021/06/22 09:01:38;;;;;;;9.88;2.53;;;27.40;58.80;;;;;;5106620;28;20032;-74
2021/06/22 09:04:04;;;;;;;9.32;2.50;;;27.40;61.50;;;;;;5099291;28;20553;-75
2021/06/22 09:06:43;;;;;;;6.63;1.95;;;27.50;62.80;;;;;;5092720;28;20484;-75
2021/06/22 09:09:10;;;;;;;8.50;2.05;;;27.60;63.90;;;;;;5105989;28;20140;-75
2021/06/22 09:11:37;;;;;;;7.50;2.20;;;27.60;62.20;;;;;;5101071;28;20724;-75
2021/06/22 09:14:07;;;;;;;9.75;2.90;;;27.60;61.10;;;;;;5096570;28;20024;-75
2021/06/22 09:16:33;;;;;;;2.80;1.80;;;27.60;62.70;;;;;;5100036;28;20024;-74
2021/06/22 09:19:11;;;;;;;6.45;2.58;;;27.60;61.60;;;;;;5110888;28;20023;-74
2021/06/22 09:21:44;;;;;;;8.90;2.35;;;27.70;63.40;;;;;;5096909;28;20095;-74
2021/06/22 09:24:22;;;;;;;9.27;2.92;;;27.80;58.50;;;;;;5081725;28;20477;-75
2021/06/22 09:26:52;;;;;;;4.10;1.98;;;28.00;59.60;;;;;;5097433;28;20031;-76
2021/06/22 09:29:20;;;;;;;8.68;2.08;;;28.00;58.50;;;;;;5102990;28;20058;-75
2021/06/22 09:31:52;;;;;;;4.25;2.08;;;28.00;57.20;;;;;;5101062;28;20024;-75
2021/06/22 09:34:19;;;;;;;5.40;2.40;;;28.10;58.40;;;;;;5083282;28;20486;-74
2021/06/22 09:36:59;;;;;;;6.30;2.33;;;28.10;56.00;;;;;;5096609;28;20099;-75
2021/06/22 09:39:27;;;;;;;8.18;2.08;;;28.20;57.60;;;;;;5080206;28;20020;-75
2021/06/22 09:41:55;;;;;;;6.55;2.03;;;28.30;56.30;;;;;;5099878;28;20692;-75
2021/06/22 09:44:26;;;;;;;11.02;2.83;;;28.30;58.20;;;;;;5100235;28;20445;-75
2021/06/22 09:46:57;;;;;;;10.25;2.33;;;28.40;60.30;;;;;;5091813;28;20095;-77
2021/06/22 09:49:31;;;;;;;3.97;1.90;;;28.40;60.00;;;;;;5085872;28;20015;-75
2021/06/22 09:52:03;;;;;;;6.32;2.22;;;28.30;55.70;;;;;;5099883;28;20023;-75
2021/06/22 09:54:33;;;;;;;9.75;2.15;;;28.40;58.30;;;;;;5102577;28;20024;-75
2021/06/22 09:57:02;;;;;;;5.68;1.85;;;28.40;56.60;;;;;;5096369;28;20526;-75
2021/06/22 09:59:31;;;;;;;9.65;2.35;;;28.50;59.10;;;;;;5087385;28;20024;-76
2021/06/22 10:02:10;;;;;;;13.73;2.00;;;28.50;60.00;;;;;;5101462;28;20049;-76
2021/06/22 10:04:36;;;;;;;7.85;2.22;;;28.60;61.30;;;;;;5092858;28;20031;-76
2021/06/22 10:07:02;;;;;;;10.57;3.53;;;28.60;60.90;;;;;;5106949;28;20059;-76
2021/06/22 10:09:32;;;;;;;7.68;2.58;;;28.60;57.80;;;;;;5106861;28;20061;-78
2021/06/22 10:12:15;;;;;;;16.42;2.88;;;28.70;58.00;;;;;;5110134;28;20049;-77
2021/06/22 10:14:44;;;;;;;7.97;2.42;;;28.80;58.30;;;;;;5107133;28;20537;-75
2021/06/22 10:17:18;;;;;;;8.05;2.70;;;28.80;56.60;;;;;;5081415;28;20102;-75
2021/06/22 10:19:49;;;;;;;4.28;1.90;;;29.00;58.50;;;;;;5101264;28;21393;-76
2021/06/22 10:22:17;;;;;;;10.97;2.67;;;29.30;57.80;;;;;;5100922;28;20029;-75
2021/06/22 10:24:45;;;;;;;5.75;2.65;;;29.40;57.40;;;;;;5104596;28;20441;-76
2021/06/22 10:27:13;;;;;;;8.88;2.45;;;29.30;57.00;;;;;;5093966;28;20028;-74
2021/06/22 10:29:39;;;;;;;10.02;3.00;;;29.30;57.00;;;;;;5099156;28;20051;-76
2021/06/22 10:32:05;;;;;;;9.23;2.85;;;29.40;56.00;;;;;;5105588;28;20394;-77
2021/06/22 10:34:32;;;;;;;5.05;2.35;;;29.30;55.70;;;;;;5098873;28;20479;-77
2021/06/22 10:37:12;;;;;;;6.97;2.65;;;29.40;58.80;;;;;;5095593;28;20027;-75
2021/06/22 10:39:54;;;;;;;9.65;2.72;;;29.50;58.30;;;;;;5094316;28;20035;-77
2021/06/22 10:42:20;;;;;;;10.82;2.80;;;29.60;56.60;;;;;;5101159;28;20060;-75
2021/06/22 10:44:51;;;;;;;6.10;2.88;;;29.70;56.40;;;;;;5094537;28;20016;-75
2021/06/22 10:47:26;;;;;;;6.20;2.08;;;29.90;56.30;;;;;;5096707;28;20104;-75
2021/06/22 10:49:58;;;;;;;4.90;2.30;;;30.10;57.40;;;;;;5084447;28;20031;-75
2021/06/22 10:52:42;;;;;;;;;;;30.30;56.90;;;;;;5103542;28;20023;-75
2021/06/22 10:55:19;;;;;;;8.20;1.85;;;30.30;56.00;;;;;;5099358;28;19914;-76
2021/06/22 10:58:10;;;;;;;8.82;2.72;;;30.40;56.80;;;;;;5096200;28;20024;-75
2021/06/22 11:00:39;;;;;;;8.52;1.98;;;30.50;54.50;;;;;;5086676;28;20051;-75
2021/06/22 11:03:08;;;;;;;3.35;1.88;;;30.50;55.10;;;;;;5086256;28;20042;-76
2021/06/22 11:05:36;;;;;;;7.68;2.35;;;30.30;53.90;;;;;;5100725;28;20537;-76
2021/06/22 11:08:13;;;;;;;6.22;2.55;;;30.10;53.90;;;;;;5103029;28;20081;-77
2021/06/22 11:11:00;;;;;;;5.22;1.80;;;30.00;54.00;;;;;;5097555;28;20658;-75
2021/06/22 11:13:37;;;;;;;4.78;2.70;;;30.20;55.40;;;;;;5094823;28;20027;-75
2021/06/22 11:16:06;;;;;;;2.10;1.50;;;30.40;56.70;;;;;;5110906;28;20390;-75
2021/06/22 11:18:53;;;;;;;4.82;2.10;;;30.50;55.00;;;;;;5099856;28;20584;-75
2021/06/22 11:21:21;;;;;;;12.27;2.33;;;30.50;54.30;;;;;;5093966;28;20027;-75
2021/06/22 11:24:02;;;;;;;14.55;2.70;;;30.70;53.80;;;;;;5102863;28;20467;-75
2021/06/22 11:26:52;;;;;;;11.47;2.40;;;30.80;54.30;;;;;;5079522;28;20130;-75
2021/06/22 11:29:22;;;;;;;6.32;2.05;;;30.80;52.00;;;;;;5075055;28;20130;-75
2021/06/22 11:31:50;;;;;;;7.65;1.98;;;31.00;53.00;;;;;;5097326;28;20032;-75
2021/06/22 11:34:21;;;;;;;5.22;2.50;;;31.00;51.20;;;;;;5105896;28;20027;-75
2021/06/22 11:36:58;;;;;;;6.43;2.58;;;31.10;52.60;;;;;;5096901;28;20047;-75
2021/06/22 11:39:28;;;;;;;4.45;2.15;;;31.20;49.90;;;;;;5081351;28;20016;-75
2021/06/22 11:45:04;;;;;;;5.90;2.22;;;31.10;49.30;;;;;;5104299;28;20085;-75
2021/06/22 11:47:32;;;;;;;3.15;1.95;;;31.20;50.00;;;;;;5103960;28;20074;-75
2021/06/22 11:50:22;;;;;;;2.45;2.03;;;31.20;49.50;;;;;;5097762;28;20050;-75
2021/06/22 11:53:04;;;;;;;4.63;1.85;;;31.20;48.70;;;;;;5095340;28;20035;-74
2021/06/22 11:55:40;;;;;;;5.60;2.15;;;31.40;50.40;;;;;;5101061;28;20339;-75
2021/06/22 11:58:06;;;;;;;8.43;1.83;;;31.30;48.50;;;;;;5083652;28;20088;-75
2021/06/22 12:00:33;;;;;;;4.20;1.83;;;31.40;48.90;;;;;;5103140;28;20020;-75
2021/06/22 12:03:04;;;;;;;7.15;1.75;;;31.50;48.40;;;;;;5102136;28;20031;-75
2021/06/22 12:05:31;;;;;;;6.07;1.70;;;31.60;48.60;;;;;;5109763;28;20428;-75
2021/06/22 12:08:02;;;;;;;9.23;1.67;;;31.70;50.00;;;;;;5098898;28;20028;-75
2021/06/22 12:10:41;;;;;;;6.07;1.92;;;31.70;49.60;;;;;;5096057;28;20425;-75
2021/06/22 12:13:07;;;;;;;3.22;2.25;;;31.80;48.90;;;;;;5082558;28;20043;-75
2021/06/22 12:15:36;;;;;;;3.60;2.17;;;31.80;47.80;;;;;;5089588;28;20395;-75
2021/06/22 12:18:02;;;;;;;4.68;2.25;;;31.90;47.20;;;;;;5105562;28;20028;-75
2021/06/22 12:20:31;;;;;;;9.07;1.90;;;31.80;48.20;;;;;;5105637;28;20382;-74
2021/06/22 12:23:08;;;;;;;4.20;2.78;;;31.90;48.40;;;;;;5104127;28;20051;-75
2021/06/22 12:25:54;;;;;;;4.47;2.17;;;32.00;48.30;;;;;;5080243;28;20431;-75
2021/06/22 12:28:22;;;;;;;2.95;1.80;;;32.20;48.10;;;;;;5099022;28;20040;-75
2021/06/22 12:30:56;;;;;;;5.43;1.90;;;32.20;47.70;;;;;;5106612;28;20038;-75
2021/06/22 12:33:28;;;;;;;5.72;2.25;;;32.30;46.30;;;;;;5102501;28;20023;-76
2021/06/22 12:36:00;;;;;;;2.28;1.48;;;32.30;47.30;;;;;;5098921;28;20027;-75
2021/06/22 12:38:28;;;;;;;2.65;2.13;;;32.50;45.80;;;;;;5083900;28;20499;-75
2021/06/22 12:41:06;;;;;;;5.38;1.60;;;32.50;44.60;;;;;;5094986;28;20350;-76
2021/06/22 12:43:42;;;;;;;4.22;1.60;;;32.50;46.50;;;;;;5094092;28;20114;-77
2021/06/22 12:46:09;;;;;;;3.45;1.55;;;32.80;47.00;;;;;;5106292;28;20024;-76
2021/06/22 12:48:35;;;;;;;2.53;1.55;;;32.80;44.60;;;;;;5079002;28;20097;-76
2021/06/22 12:51:01;;;;;;;6.30;1.65;;;32.90;45.00;;;;;;5074811;28;20173;-75
2021/06/22 12:53:32;;;;;;;4.65;1.42;;;32.90;44.90;;;;;;5100667;28;20126;-75
2021/06/22 12:56:12;;;;;;;4.70;1.75;;;32.90;43.90;;;;;;5097905;28;20051;-75